^^
Datos históricos de la estación: Murcia-Puente Tocinos
Diario Informe para Abril 20, 2021 Unidades:  Ingés    Métrico   Ambas
Diario Semanal Mensual Anual
  Máxima: Mínima: Promedio:
Temperatura: 63.5 °F 60.6 °F 61.5 °F
Punto de rocio: 57.4 °F 56.5 °F 57.2 °F
Humedad: 89% 78% 86%
Velocidad viento: 11.2mph 5.9mph 8.3mph
Racha viento: 18.4mph - -
Viento- - NNE
Presión: 29.9 in 29.8 in -
Precipitación: 0.06 in    
 
 
Tabla de datos para Abril 20, 2021
Hora Temperatura Punto de rocio Presión Viento Velocidad viento Racha viento Humedad Intensidad lluvia(por hora) Nubes
20:34 63.5 °F 56.5 °F 29.8 in NE 10.7 mph 12.7 mph 78% 0 in
20:39 63.3 °F 56.7 °F 29.8 in NNE 11.1 mph 16.1 mph 78.8% 0 in
20:44 63.1 °F 56.7 °F 29.8 in NNE 11.2 mph 16 mph 79.1% 0 in
20:49 63.1 °F 56.8 °F 29.8 in NE 9.6 mph 15 mph 80% 0 in
20:54 63 °F 56.8 °F 29.8 in NNE 8.5 mph 15 mph 80.3% 0 in
20:59 63 °F 57 °F 29.8 in NNE 8.6 mph 17.3 mph 81% 0 in
21:04 62.8 °F 57 °F 29.8 in NE 8.7 mph 17 mph 81.6% 0 in
21:09 62.6 °F 57 °F 29.8 in NE 8.9 mph 16.1 mph 82% 0 in
21:14 62.4 °F 57 °F 29.8 in NE 9.2 mph 18.4 mph 82.5% 0 in
21:19 62.2 °F 57.2 °F 29.8 in NE 10.3 mph 18 mph 83% 0 in
21:24 62.2 °F 57.2 °F 29.8 in NNE 10.7 mph 17 mph 83.6% 0 in
21:29 62.1 °F 57 °F 29.8 in NNE 9.3 mph 16 mph 83.5% 0 in
21:34 62.1 °F 57 °F 29.8 in NNE 8.7 mph 15 mph 83.8% 0 in
21:39 62.1 °F 57.2 °F 29.8 in NNE 8.3 mph 13 mph 84% 0 in
21:44 61.9 °F 57 °F 29.8 in NE 8.1 mph 12.3 mph 84% 0 in
21:49 61.5 °F 56.7 °F 29.8 in NNE 7.8 mph 14 mph 84% 0 in
21:54 61.5 °F 56.8 °F 29.8 in NNE 7.6 mph 14 mph 84.5% 0 in
21:59 61.3 °F 56.8 °F 29.8 in NNE 8.1 mph 15 mph 85% 0 in
22:04 61.3 °F 57 °F 29.8 in NNE 8.7 mph 15 mph 86% 0 in
22:09 61.2 °F 57.2 °F 29.8 in NNE 9.5 mph 15.9 mph 86.6% 0 in
22:14 61.2 °F 57.4 °F 29.9 in NNE 10 mph 16.1 mph 87% 0 in
22:19 61.2 °F 57.2 °F 29.9 in NNE 9.3 mph 16 mph 87% 0 in
22:24 61 °F 57 °F 29.9 in NNE 8.1 mph 13.8 mph 87% 0 in
22:29 61 °F 57.4 °F 29.9 in NNE 7.5 mph 14 mph 88% 0 in
22:34 61 °F 57.4 °F 29.9 in NNE 7.4 mph 14 mph 88% 0 in
22:39 61 °F 57.4 °F 29.9 in NNE 7.4 mph 16.1 mph 88% 0 in
22:44 60.8 °F 57.2 °F 29.9 in NNE 7.4 mph 14 mph 88% 0 in
22:49 60.8 °F 57.2 °F 29.9 in NE 8.1 mph 14 mph 88% 0 in
22:54 60.8 °F 57.2 °F 29.9 in NNE 8.5 mph 14 mph 88% 0 in
22:59 60.8 °F 57.2 °F 29.9 in NNE 7.8 mph 13 mph 88% 0 in
23:04 60.8 °F 57.2 °F 29.9 in NNE 7.4 mph 12.7 mph 88.1% 0 in
23:09 60.6 °F 57.4 °F 29.9 in NNE 7 mph 13 mph 89% 0 in
23:14 60.6 °F 57.4 °F 29.9 in NE 6.9 mph 13 mph 89% 0 in
23:19 60.6 °F 57.4 °F 29.9 in NNE 7.3 mph 14 mph 89% 0 in
23:24 60.6 °F 57.4 °F 29.9 in NNE 7.4 mph 14 mph 89% 0 in
23:29 60.6 °F 57.4 °F 29.9 in NNE 7 mph 13 mph 89% 0 in
23:34 60.6 °F 57.4 °F 29.9 in NNE 6.9 mph 13 mph 89% 0 in
23:39 60.6 °F 57.4 °F 29.9 in NNE 7.3 mph 13 mph 89% 0 in
23:44 60.6 °F 57.4 °F 29.9 in NNE 7.4 mph 13 mph 89% 0 in
23:49 60.6 °F 57.4 °F 29.9 in NNE 6.5 mph 12.7 mph 89% 0 in
23:54 60.6 °F 57.4 °F 29.9 in NE 5.9 mph 12.7 mph 89% 0 in
23:59 60.6 °F 57.4 °F 29.9 in NNE 6.2 mph 11.5 mph 89% 0 in
Murcia-Puente Tocinos, España
Compliments of Weather Underground - 1.5 mb

La estación de MeteoMurcia.com, publica sus datos en los siguientes proyectos:

Weather Underground PWS IMURCIAP2 Meteoclimatic www.awekas.at

W3Counter
Web Analytics